Eviapetrol I — SY5401 — position and weather

sailwx.info

Track history (hours):
 
Tides and Currents Weather Stations Pressure Air Temp Water Temp Dewpoint Dewpoint Depression Visibility Wind Speed Wind Dir Waves Ship Positions

Eviapetrol I

Last reported at 2017-Apr-23 04:35 UTC. Time now 2017-Apr-23 19:40 UTC.
Position N 37°33' E 023°52'.

Length 75 m; draft 5.1 m.

Type: Tanker. MMSI: 240285000.

Date/timePositionNaut miles runAvg speedWind from/ knotsBaromVisibWave heightAir tempDewpointWater temp
2017-Apr-23 04:35N 37°33' E 023°52'110.7
2017-Apr-23 04:29N 37°34' E 023°51'510.8
2017-Apr-23 04:00N 37°37' E 023°46'510.8
2017-Apr-23 03:31N 37°41' E 023°42'510.7
2017-Apr-23 03:01N 37°46' E 023°38'510.3
2017-Apr-23 02:30N 37°49' E 023°33'510.5
2017-Apr-23 02:01N 37°51' E 023°27'5 9.7
2017-Apr-23 01:30N 37°55' E 023°23'4 8.5
2017-Apr-23 01:00N 37°58' E 023°25'3 5.5
2017-Apr-23 00:31N 38°00' E 023°28'3 5.5
2017-Apr-23 00:01N 38°02' E 023°30'0 0.1
2017-Apr-22 23:28N 38°02' E 023°30'0 0.0
2017-Apr-22 22:58N 38°02' E 023°30'0 0.0
2017-Apr-22 22:30N 38°02' E 023°30'0 0.0
2017-Apr-22 21:58N 38°02' E 023°30'0 0.0
2017-Apr-22 21:31N 38°02' E 023°30'0 0.0
2017-Apr-22 20:58N 38°02' E 023°30'0 0.0
2017-Apr-22 20:30N 38°02' E 023°30'0 0.0
2017-Apr-22 20:01N 38°02' E 023°30'0 0.0
2017-Apr-22 19:28N 38°02' E 023°30'0 0.0
2017-Apr-22 18:58N 38°02' E 023°30'0 0.0
2017-Apr-22 18:31N 38°02' E 023°30'0 0.0
2017-Apr-22 18:01N 38°02' E 023°30'0 0.0
2017-Apr-22 17:31N 38°02' E 023°30'0 0.0
2017-Apr-22 16:58N 38°02' E 023°30'0 0.0
2017-Apr-22 16:31N 38°02' E 023°30'0 0.0
2017-Apr-22 15:58N 38°02' E 023°30'0 0.0
2017-Apr-22 15:31N 38°02' E 023°30'0 0.0
2017-Apr-22 15:01N 38°02' E 023°30'0 0.0
2017-Apr-22 14:28N 38°02' E 023°30'0 0.0
2017-Apr-22 13:28N 38°02' E 023°30'0 0.0
2017-Apr-22 12:55N 38°02' E 023°30'0 0.0
2017-Apr-22 12:31N 38°02' E 023°30'0 0.0
2017-Apr-22 11:58N 38°02' E 023°30'0 0.0
2017-Apr-22 11:31N 38°02' E 023°30'0 0.0
2017-Apr-22 11:01N 38°02' E 023°30'0 0.0
2017-Apr-22 10:31N 38°02' E 023°30'0 0.0
2017-Apr-22 10:01N 38°02' E 023°30'0 0.0
2017-Apr-22 09:28N 38°02' E 023°30'0 0.0
2017-Apr-22 08:58N 38°02' E 023°30'0 0.0
2017-Apr-22 08:28N 38°02' E 023°30'0 0.0
2017-Apr-22 08:01N 38°02' E 023°30'0 0.0
2017-Apr-22 07:28N 38°02' E 023°30'0 0.0
2017-Apr-22 06:57N 38°02' E 023°30'0 0.0
2017-Apr-22 06:27N 38°02' E 023°30'0 0.0
2017-Apr-22 05:58N 38°02' E 023°30'0 0.0
2017-Apr-22 05:28N 38°02' E 023°30'0 0.0
2017-Apr-22 04:58N 38°02' E 023°30'0 1.0
2017-Apr-22 04:29N 38°02' E 023°30'1 1.1
2017-Apr-22 03:59N 38°02' E 023°31'0 0.0
2017-Apr-22 03:29N 38°02' E 023°31'0 0.0
2017-Apr-22 02:59N 38°02' E 023°31'0 0.0
2017-Apr-22 02:29N 38°02' E 023°31'0 0.0
2017-Apr-22 01:59N 38°02' E 023°31'0 0.0
2017-Apr-22 01:29N 38°02' E 023°31'2 3.4
2017-Apr-22 01:00N 38°01' E 023°33'2 4.5
2017-Apr-22 00:31N 38°02' E 023°36'0 0.1
2017-Apr-22 00:00N 38°02' E 023°36'0 0.0
2017-Apr-21 23:30N 38°02' E 023°36'0 0.0
2017-Apr-21 23:00N 38°02' E 023°36'0 0.0
2017-Apr-21 22:30N 38°02' E 023°36'0 0.0
2017-Apr-21 22:00N 38°02' E 023°36'0 0.0
2017-Apr-21 21:31N 38°02' E 023°36'0 0.0
2017-Apr-21 21:00N 38°02' E 023°36'0 0.0
2017-Apr-21 20:30N 38°02' E 023°36'0 0.0
2017-Apr-21 20:01N 38°02' E 023°36'0 0.0
2017-Apr-21 19:30N 38°02' E 023°36'0 0.0
2017-Apr-21 19:00N 38°02' E 023°36'0 0.0
2017-Apr-21 18:30N 38°02' E 023°36'0 0.0
2017-Apr-21 18:00N 38°02' E 023°36'0 0.0
2017-Apr-21 17:30N 38°02' E 023°36'0 0.0
2017-Apr-21 17:00N 38°02' E 023°36'0 0.1
2017-Apr-21 16:30N 38°02' E 023°36'2 3.6
2017-Apr-21 16:00N 38°01' E 023°34'2 3.0
2017-Apr-21 15:28N 38°01' E 023°32'0 0.0
2017-Apr-21 14:58N 38°01' E 023°32'0 0.1
2017-Apr-21 13:58N 38°01' E 023°32'0 0.0
2017-Apr-21 13:28N 38°01' E 023°32'0 0.0
2017-Apr-21 12:58N 38°01' E 023°32'0 0.0
2017-Apr-21 12:28N 38°01' E 023°32'0 0.1
2017-Apr-21 11:58N 38°01' E 023°32'0 0.0
2017-Apr-21 11:28N 38°01' E 023°32'0 0.0
2017-Apr-21 10:58N 38°01' E 023°32'0 0.0
2017-Apr-21 10:28N 38°01' E 023°32'0 0.0
2017-Apr-21 09:58N 38°01' E 023°32'0 0.1
2017-Apr-21 09:28N 38°01' E 023°32'0 0.0
2017-Apr-21 08:58N 38°01' E 023°32'0 0.0
2017-Apr-21 08:28N 38°01' E 023°32'0 0.0
2017-Apr-21 07:55N 38°01' E 023°32'0 0.0
2017-Apr-21 07:28N 38°01' E 023°32'0 0.0
2017-Apr-21 06:58N 38°01' E 023°32'0 0.0
2017-Apr-21 06:25N 38°01' E 023°32'0 0.0
2017-Apr-21 05:58N 38°01' E 023°32'0 0.0
2017-Apr-21 05:28N 38°01' E 023°32'0 0.0
2017-Apr-21 04:58N 38°01' E 023°32'0 0.0
2017-Apr-21 04:28N 38°01' E 023°32'0 0.0
2017-Apr-21 03:58N 38°01' E 023°32'0 0.0
2017-Apr-21 03:28N 38°01' E 023°32'0 0.0
2017-Apr-21 02:58N 38°01' E 023°32'0 0.0
2017-Apr-21 02:28N 38°01' E 023°32'0 0.0
2017-Apr-21 01:58N 38°01' E 023°32'0 0.0
2017-Apr-21 01:28N 38°01' E 023°32'0 0.0
2017-Apr-21 00:58N 38°01' E 023°32'0 0.0
2017-Apr-21 00:28N 38°01' E 023°32'0 0.0
2017-Apr-20 23:58N 38°01' E 023°32'2 4.4
2017-Apr-20 23:30N 38°01' E 023°29'4 7.0
2017-Apr-20 23:01N 37°58' E 023°26'5 9.7
2017-Apr-20 22:30N 37°56' E 023°20'510.3
2017-Apr-20 22:01N 37°55' E 023°14'510.4
2017-Apr-20 21:30N 37°54' E 023°07'510.1
2017-Apr-20 21:00N 37°55' E 023°01'7710.1
2017-Apr-20 13:21N 38°16' E 021°27'  
2017-Apr-17 22:38N 38°16' E 021°13'1 9.9
2017-Apr-17 22:30N 38°16' E 021°14'7 9.9
2017-Apr-17 21:47N 38°16' E 021°23'71 9.0
2017-Apr-17 13:53N 37°60' E 022°51'4 9.7
2017-Apr-17 13:30N 37°58' E 022°56'5 5.8
2017-Apr-17 12:42N 37°55' E 023°00'1 4.9
2017-Apr-17 12:30N 37°55' E 023°01'3 5.6
2017-Apr-17 12:01N 37°54' E 023°05'510.5
2017-Apr-17 11:31N 37°55' E 023°11'510.5
2017-Apr-17 11:01N 37°56' E 023°18'510.1
2017-Apr-17 10:31N 37°57' E 023°24'3 6.7
2017-Apr-17 10:01N 38°00' E 023°27'4 7.1
2017-Apr-17 09:31N 38°02' E 023°30'0 0.5
2017-Apr-17 09:00N 38°02' E 023°30'0 0.0
2017-Apr-17 08:30N 38°02' E 023°30'0 0.0
2017-Apr-17 07:57N 38°02' E 023°30'0 0.0
2017-Apr-17 07:30N 38°02' E 023°30'0 0.0
2017-Apr-17 07:00N 38°02' E 023°30'0 0.0
2017-Apr-17 06:30N 38°02' E 023°30'0 0.0
2017-Apr-17 06:00N 38°02' E 023°30'0 0.0
2017-Apr-17 05:30N 38°02' E 023°30'0 0.0
2017-Apr-17 05:00N 38°02' E 023°30'0 0.0
2017-Apr-17 04:30N 38°02' E 023°30'0 0.0
2017-Apr-17 04:00N 38°02' E 023°30'0 0.0
2017-Apr-17 03:30N 38°02' E 023°30'0 0.0
2017-Apr-17 03:00N 38°02' E 023°30'0 0.0
2017-Apr-17 02:30N 38°02' E 023°30'0 0.0
2017-Apr-17 02:00N 38°02' E 023°30'0 0.0
2017-Apr-17 01:30N 38°02' E 023°30'0 0.0
2017-Apr-17 01:00N 38°02' E 023°30'0 0.0
2017-Apr-17 00:30N 38°02' E 023°30'0 0.0
2017-Apr-17 00:00N 38°02' E 023°30'0 0.0
2017-Apr-16 23:30N 38°02' E 023°30'0 0.0
2017-Apr-16 23:00N 38°02' E 023°30'0 0.0
2017-Apr-16 22:30N 38°02' E 023°30'0 0.0
2017-Apr-16 22:00N 38°02' E 023°30'0 0.0
2017-Apr-16 21:30N 38°02' E 023°30'0 0.0
2017-Apr-16 21:00N 38°02' E 023°30'0 0.0
2017-Apr-16 20:30N 38°02' E 023°30'0 0.0
2017-Apr-16 20:00N 38°02' E 023°30'0 0.0
2017-Apr-16 19:30N 38°02' E 023°30'0 0.0
2017-Apr-16 19:00N 38°02' E 023°30'0 0.0
2017-Apr-16 18:30N 38°02' E 023°30'0 0.0
2017-Apr-16 18:00N 38°02' E 023°30'0 0.0
2017-Apr-16 17:30N 38°02' E 023°30'0 0.0
2017-Apr-16 17:00N 38°02' E 023°30'0 0.0
2017-Apr-16 16:30N 38°02' E 023°30'0 0.0
2017-Apr-16 16:00N 38°02' E 023°30'0 0.0
2017-Apr-16 15:30N 38°02' E 023°30'0 0.0
2017-Apr-16 15:00N 38°02' E 023°30'0 0.0
2017-Apr-16 14:30N 38°02' E 023°30'0 0.0
2017-Apr-16 13:30N 38°02' E 023°30'0 0.0
2017-Apr-16 13:00N 38°02' E 023°30'0 0.0
2017-Apr-16 12:30N 38°02' E 023°30'0 0.0
2017-Apr-16 12:00N 38°02' E 023°30'0 0.0
2017-Apr-16 11:30N 38°02' E 023°30'0 0.0
2017-Apr-16 11:00N 38°02' E 023°30'0 0.0
2017-Apr-16 10:31N 38°02' E 023°30'1 2.3
2017-Apr-16 10:01N 38°01' E 023°31'4 8.9
2017-Apr-16 09:31N 37°57' E 023°34'5 9.2
2017-Apr-16 09:01N 37°54' E 023°38'611.1
2017-Apr-16 08:30N 37°49' E 023°40'611.2
2017-Apr-16 08:00N 37°44' E 023°43'22 0.4
2017-Apr-14 06:01N 37°21' E 023°43'510.3
2017-Apr-14 05:31N 37°26' E 023°40'510.3
2017-Apr-14 05:01N 37°30' E 023°36'510.3
2017-Apr-14 04:31N 37°35' E 023°33'5 9.8
2017-Apr-14 04:00N 37°38' E 023°29'510.1
2017-Apr-14 03:31N 37°39' E 023°23'5 9.5
2017-Apr-14 03:01N 37°42' E 023°17'510.3
2017-Apr-14 02:30N 37°46' E 023°14'510.6
2017-Apr-14 02:00N 37°51' E 023°11'510.1
2017-Apr-14 01:30N 37°54' E 023°06'1 1.9
2017-Apr-14 00:59N 37°55' E 023°05'0 0.0
2017-Apr-14 00:29N 37°55' E 023°05'0 0.0
2017-Apr-13 23:59N 37°55' E 023°05'0 0.0
2017-Apr-13 23:29N 37°55' E 023°05'0 0.0
2017-Apr-13 22:59N 37°55' E 023°05'0 0.0
2017-Apr-13 22:29N 37°55' E 023°05'0 0.0
2017-Apr-13 21:59N 37°55' E 023°05'0 0.0
2017-Apr-13 21:29N 37°55' E 023°05'0 0.0
2017-Apr-13 20:59N 37°55' E 023°05'0 0.0
2017-Apr-13 20:29N 37°55' E 023°05'0 0.0
2017-Apr-13 19:59N 37°55' E 023°05'0 0.0
2017-Apr-13 19:29N 37°55' E 023°05'0 0.0
2017-Apr-13 18:59N 37°55' E 023°05'0 0.0
2017-Apr-13 18:29N 37°55' E 023°05'0 0.0
2017-Apr-13 17:59N 37°55' E 023°05'0 0.0
2017-Apr-13 17:29N 37°55' E 023°05'0 0.0
2017-Apr-13 16:59N 37°55' E 023°05'0 0.0
2017-Apr-13 16:29N 37°55' E 023°05'0 0.0
2017-Apr-13 15:59N 37°55' E 023°05'0 0.0
2017-Apr-13 15:29N 37°55' E 023°05'0 0.0
2017-Apr-13 14:59N 37°55' E 023°05'0 0.0
2017-Apr-13 14:29N 37°55' E 023°05'0 0.0
2017-Apr-13 13:29N 37°55' E 023°05'0 0.0
2017-Apr-13 12:59N 37°55' E 023°05'0 0.0
2017-Apr-13 12:29N 37°55' E 023°05'0 0.2
2017-Apr-13 11:59N 37°55' E 023°05'1 2.6
2017-Apr-13 11:28N 37°54' E 023°04'0 0.1
2017-Apr-13 10:58N 37°54' E 023°04'0 0.1
2017-Apr-13 10:25N 37°54' E 023°04'0 0.0
2017-Apr-13 09:58N 37°54' E 023°04'0 0.0
2017-Apr-13 09:28N 37°54' E 023°04'0 0.0
2017-Apr-13 08:58N 37°54' E 023°04'0 0.0
2017-Apr-13 08:28N 37°54' E 023°04'0 0.0
2017-Apr-13 07:58N 37°54' E 023°04'0 0.0
2017-Apr-13 07:25N 37°54' E 023°04'0 0.1
2017-Apr-13 06:58N 37°54' E 023°04'0 0.0
2017-Apr-13 06:28N 37°54' E 023°04'0 0.0
2017-Apr-13 05:58N 37°54' E 023°04'0 0.0
2017-Apr-13 05:28N 37°54' E 023°04'0 0.0
2017-Apr-13 04:58N 37°54' E 023°04'  
Track history (hours):
 
Tides and Currents Weather Stations Pressure Air Temp Water Temp Dewpoint Dewpoint Depression Visibility Wind Speed Wind Dir Waves Ship Positions

Eviapetrol I

Last reported at 2017-Apr-23 04:35 UTC. Time now 2017-Apr-23 19:40 UTC.
Position N 37°33' E 023°52'.

Length 75 m; draft 5.1 m.

Type: Tanker. MMSI: 240285000.

Date/timePositionNaut miles runAvg speedWind from/ knotsBaromVisibWave heightAir tempDewpointWater temp
2017-Apr-23 04:35N 37°33' E 023°52'110.7
2017-Apr-23 04:29N 37°34' E 023°51'510.8
2017-Apr-23 04:00N 37°37' E 023°46'510.8
2017-Apr-23 03:31N 37°41' E 023°42'510.7
2017-Apr-23 03:01N 37°46' E 023°38'510.3
2017-Apr-23 02:30N 37°49' E 023°33'510.5
2017-Apr-23 02:01N 37°51' E 023°27'5 9.7
2017-Apr-23 01:30N 37°55' E 023°23'4 8.5
2017-Apr-23 01:00N 37°58' E 023°25'3 5.5
2017-Apr-23 00:31N 38°00' E 023°28'3 5.5
2017-Apr-23 00:01N 38°02' E 023°30'0 0.1
2017-Apr-22 23:28N 38°02' E 023°30'0 0.0
2017-Apr-22 22:58N 38°02' E 023°30'0 0.0
2017-Apr-22 22:30N 38°02' E 023°30'0 0.0
2017-Apr-22 21:58N 38°02' E 023°30'0 0.0
2017-Apr-22 21:31N 38°02' E 023°30'0 0.0
2017-Apr-22 20:58N 38°02' E 023°30'0 0.0
2017-Apr-22 20:30N 38°02' E 023°30'0 0.0
2017-Apr-22 20:01N 38°02' E 023°30'0 0.0
2017-Apr-22 19:28N 38°02' E 023°30'0 0.0
2017-Apr-22 18:58N 38°02' E 023°30'0 0.0
2017-Apr-22 18:31N 38°02' E 023°30'0 0.0
2017-Apr-22 18:01N 38°02' E 023°30'0 0.0
2017-Apr-22 17:31N 38°02' E 023°30'0 0.0
2017-Apr-22 16:58N 38°02' E 023°30'0 0.0
2017-Apr-22 16:31N 38°02' E 023°30'0 0.0
2017-Apr-22 15:58N 38°02' E 023°30'0 0.0
2017-Apr-22 15:31N 38°02' E 023°30'0 0.0
2017-Apr-22 15:01N 38°02' E 023°30'0 0.0
2017-Apr-22 14:28N 38°02' E 023°30'0 0.0
2017-Apr-22 13:28N 38°02' E 023°30'0 0.0
2017-Apr-22 12:55N 38°02' E 023°30'0 0.0
2017-Apr-22 12:31N 38°02' E 023°30'0 0.0
2017-Apr-22 11:58N 38°02' E 023°30'0 0.0
2017-Apr-22 11:31N 38°02' E 023°30'0 0.0
2017-Apr-22 11:01N 38°02' E 023°30'0 0.0
2017-Apr-22 10:31N 38°02' E 023°30'0 0.0
2017-Apr-22 10:01N 38°02' E 023°30'0 0.0
2017-Apr-22 09:28N 38°02' E 023°30'0 0.0
2017-Apr-22 08:58N 38°02' E 023°30'0 0.0
2017-Apr-22 08:28N 38°02' E 023°30'0 0.0
2017-Apr-22 08:01N 38°02' E 023°30'0 0.0
2017-Apr-22 07:28N 38°02' E 023°30'0 0.0
2017-Apr-22 06:57N 38°02' E 023°30'0 0.0
2017-Apr-22 06:27N 38°02' E 023°30'0 0.0
2017-Apr-22 05:58N 38°02' E 023°30'0 0.0
2017-Apr-22 05:28N 38°02' E 023°30'0 0.0
2017-Apr-22 04:58N 38°02' E 023°30'0 1.0
2017-Apr-22 04:29N 38°02' E 023°30'1 1.1
2017-Apr-22 03:59N 38°02' E 023°31'0 0.0
2017-Apr-22 03:29N 38°02' E 023°31'0 0.0
2017-Apr-22 02:59N 38°02' E 023°31'0 0.0
2017-Apr-22 02:29N 38°02' E 023°31'0 0.0
2017-Apr-22 01:59N 38°02' E 023°31'0 0.0
2017-Apr-22 01:29N 38°02' E 023°31'2 3.4
2017-Apr-22 01:00N 38°01' E 023°33'2 4.5
2017-Apr-22 00:31N 38°02' E 023°36'0 0.1
2017-Apr-22 00:00N 38°02' E 023°36'0 0.0
2017-Apr-21 23:30N 38°02' E 023°36'0 0.0
2017-Apr-21 23:00N 38°02' E 023°36'0 0.0
2017-Apr-21 22:30N 38°02' E 023°36'0 0.0
2017-Apr-21 22:00N 38°02' E 023°36'0 0.0
2017-Apr-21 21:31N 38°02' E 023°36'0 0.0
2017-Apr-21 21:00N 38°02' E 023°36'0 0.0
2017-Apr-21 20:30N 38°02' E 023°36'0 0.0
2017-Apr-21 20:01N 38°02' E 023°36'0 0.0
2017-Apr-21 19:30N 38°02' E 023°36'0 0.0
2017-Apr-21 19:00N 38°02' E 023°36'0 0.0
2017-Apr-21 18:30N 38°02' E 023°36'0 0.0
2017-Apr-21 18:00N 38°02' E 023°36'0 0.0
2017-Apr-21 17:30N 38°02' E 023°36'0 0.0
2017-Apr-21 17:00N 38°02' E 023°36'0 0.1
2017-Apr-21 16:30N 38°02' E 023°36'2 3.6
2017-Apr-21 16:00N 38°01' E 023°34'2 3.0
2017-Apr-21 15:28N 38°01' E 023°32'0 0.0
2017-Apr-21 14:58N 38°01' E 023°32'0 0.1
2017-Apr-21 13:58N 38°01' E 023°32'0 0.0
2017-Apr-21 13:28N 38°01' E 023°32'0 0.0
2017-Apr-21 12:58N 38°01' E 023°32'0 0.0
2017-Apr-21 12:28N 38°01' E 023°32'0 0.1
2017-Apr-21 11:58N 38°01' E 023°32'0 0.0
2017-Apr-21 11:28N 38°01' E 023°32'0 0.0
2017-Apr-21 10:58N 38°01' E 023°32'0 0.0
2017-Apr-21 10:28N 38°01' E 023°32'0 0.0
2017-Apr-21 09:58N 38°01' E 023°32'0 0.1
2017-Apr-21 09:28N 38°01' E 023°32'0 0.0
2017-Apr-21 08:58N 38°01' E 023°32'0 0.0
2017-Apr-21 08:28N 38°01' E 023°32'0 0.0
2017-Apr-21 07:55N 38°01' E 023°32'0 0.0
2017-Apr-21 07:28N 38°01' E 023°32'0 0.0
2017-Apr-21 06:58N 38°01' E 023°32'0 0.0
2017-Apr-21 06:25N 38°01' E 023°32'0 0.0
2017-Apr-21 05:58N 38°01' E 023°32'0 0.0
2017-Apr-21 05:28N 38°01' E 023°32'0 0.0
2017-Apr-21 04:58N 38°01' E 023°32'0 0.0
2017-Apr-21 04:28N 38°01' E 023°32'0 0.0
2017-Apr-21 03:58N 38°01' E 023°32'0 0.0
2017-Apr-21 03:28N 38°01' E 023°32'0 0.0
2017-Apr-21 02:58N 38°01' E 023°32'0 0.0
2017-Apr-21 02:28N 38°01' E 023°32'0 0.0
2017-Apr-21 01:58N 38°01' E 023°32'0 0.0
2017-Apr-21 01:28N 38°01' E 023°32'0 0.0
2017-Apr-21 00:58N 38°01' E 023°32'0 0.0
2017-Apr-21 00:28N 38°01' E 023°32'0 0.0
2017-Apr-20 23:58N 38°01' E 023°32'2 4.4
2017-Apr-20 23:30N 38°01' E 023°29'4 7.0
2017-Apr-20 23:01N 37°58' E 023°26'5 9.7
2017-Apr-20 22:30N 37°56' E 023°20'510.3
2017-Apr-20 22:01N 37°55' E 023°14'510.4
2017-Apr-20 21:30N 37°54' E 023°07'510.1
2017-Apr-20 21:00N 37°55' E 023°01'7710.1
2017-Apr-20 13:21N 38°16' E 021°27'  
2017-Apr-17 22:38N 38°16' E 021°13'1 9.9
2017-Apr-17 22:30N 38°16' E 021°14'7 9.9
2017-Apr-17 21:47N 38°16' E 021°23'71 9.0
2017-Apr-17 13:53N 37°60' E 022°51'4 9.7
2017-Apr-17 13:30N 37°58' E 022°56'5 5.8
2017-Apr-17 12:42N 37°55' E 023°00'1 4.9
2017-Apr-17 12:30N 37°55' E 023°01'3 5.6
2017-Apr-17 12:01N 37°54' E 023°05'510.5
2017-Apr-17 11:31N 37°55' E 023°11'510.5
2017-Apr-17 11:01N 37°56' E 023°18'510.1
2017-Apr-17 10:31N 37°57' E 023°24'3 6.7
2017-Apr-17 10:01N 38°00' E 023°27'4 7.1
2017-Apr-17 09:31N 38°02' E 023°30'0 0.5
2017-Apr-17 09:00N 38°02' E 023°30'0 0.0
2017-Apr-17 08:30N 38°02' E 023°30'0 0.0
2017-Apr-17 07:57N 38°02' E 023°30'0 0.0
2017-Apr-17 07:30N 38°02' E 023°30'0 0.0
2017-Apr-17 07:00N 38°02' E 023°30'0 0.0
2017-Apr-17 06:30N 38°02' E 023°30'0 0.0
2017-Apr-17 06:00N 38°02' E 023°30'0 0.0
2017-Apr-17 05:30N 38°02' E 023°30'0 0.0
2017-Apr-17 05:00N 38°02' E 023°30'0 0.0
2017-Apr-17 04:30N 38°02' E 023°30'0 0.0
2017-Apr-17 04:00N 38°02' E 023°30'0 0.0
2017-Apr-17 03:30N 38°02' E 023°30'0 0.0
2017-Apr-17 03:00N 38°02' E 023°30'0 0.0
2017-Apr-17 02:30N 38°02' E 023°30'0 0.0
2017-Apr-17 02:00N 38°02' E 023°30'0 0.0
2017-Apr-17 01:30N 38°02' E 023°30'0 0.0
2017-Apr-17 01:00N 38°02' E 023°30'0 0.0
2017-Apr-17 00:30N 38°02' E 023°30'0 0.0
2017-Apr-17 00:00N 38°02' E 023°30'0 0.0
2017-Apr-16 23:30N 38°02' E 023°30'0 0.0
2017-Apr-16 23:00N 38°02' E 023°30'0 0.0
2017-Apr-16 22:30N 38°02' E 023°30'0 0.0
2017-Apr-16 22:00N 38°02' E 023°30'0 0.0
2017-Apr-16 21:30N 38°02' E 023°30'0 0.0
2017-Apr-16 21:00N 38°02' E 023°30'0 0.0
2017-Apr-16 20:30N 38°02' E 023°30'0 0.0
2017-Apr-16 20:00N 38°02' E 023°30'0 0.0
2017-Apr-16 19:30N 38°02' E 023°30'0 0.0
2017-Apr-16 19:00N 38°02' E 023°30'0 0.0
2017-Apr-16 18:30N 38°02' E 023°30'0 0.0
2017-Apr-16 18:00N 38°02' E 023°30'0 0.0
2017-Apr-16 17:30N 38°02' E 023°30'0 0.0
2017-Apr-16 17:00N 38°02' E 023°30'0 0.0
2017-Apr-16 16:30N 38°02' E 023°30'0 0.0
2017-Apr-16 16:00N 38°02' E 023°30'0 0.0
2017-Apr-16 15:30N 38°02' E 023°30'0 0.0
2017-Apr-16 15:00N 38°02' E 023°30'0 0.0
2017-Apr-16 14:30N 38°02' E 023°30'0 0.0
2017-Apr-16 13:30N 38°02' E 023°30'0 0.0
2017-Apr-16 13:00N 38°02' E 023°30'0 0.0
2017-Apr-16 12:30N 38°02' E 023°30'0 0.0
2017-Apr-16 12:00N 38°02' E 023°30'0 0.0
2017-Apr-16 11:30N 38°02' E 023°30'0 0.0
2017-Apr-16 11:00N 38°02' E 023°30'0 0.0
2017-Apr-16 10:31N 38°02' E 023°30'1 2.3
2017-Apr-16 10:01N 38°01' E 023°31'4 8.9
2017-Apr-16 09:31N 37°57' E 023°34'5 9.2
2017-Apr-16 09:01N 37°54' E 023°38'611.1
2017-Apr-16 08:30N 37°49' E 023°40'611.2
2017-Apr-16 08:00N 37°44' E 023°43'22 0.4
2017-Apr-14 06:01N 37°21' E 023°43'510.3
2017-Apr-14 05:31N 37°26' E 023°40'510.3
2017-Apr-14 05:01N 37°30' E 023°36'510.3
2017-Apr-14 04:31N 37°35' E 023°33'5 9.8
2017-Apr-14 04:00N 37°38' E 023°29'510.1
2017-Apr-14 03:31N 37°39' E 023°23'5 9.5
2017-Apr-14 03:01N 37°42' E 023°17'510.3
2017-Apr-14 02:30N 37°46' E 023°14'510.6
2017-Apr-14 02:00N 37°51' E 023°11'510.1
2017-Apr-14 01:30N 37°54' E 023°06'1 1.9
2017-Apr-14 00:59N 37°55' E 023°05'0 0.0
2017-Apr-14 00:29N 37°55' E 023°05'0 0.0
2017-Apr-13 23:59N 37°55' E 023°05'0 0.0
2017-Apr-13 23:29N 37°55' E 023°05'0 0.0
2017-Apr-13 22:59N 37°55' E 023°05'0 0.0
2017-Apr-13 22:29N 37°55' E 023°05'0 0.0
2017-Apr-13 21:59N 37°55' E 023°05'0 0.0
2017-Apr-13 21:29N 37°55' E 023°05'0 0.0
2017-Apr-13 20:59N 37°55' E 023°05'0 0.0
2017-Apr-13 20:29N 37°55' E 023°05'0 0.0
2017-Apr-13 19:59N 37°55' E 023°05'0 0.0
2017-Apr-13 19:29N 37°55' E 023°05'0 0.0
2017-Apr-13 18:59N 37°55' E 023°05'0 0.0
2017-Apr-13 18:29N 37°55' E 023°05'0 0.0
2017-Apr-13 17:59N 37°55' E 023°05'0 0.0
2017-Apr-13 17:29N 37°55' E 023°05'0 0.0
2017-Apr-13 16:59N 37°55' E 023°05'0 0.0
2017-Apr-13 16:29N 37°55' E 023°05'0 0.0
2017-Apr-13 15:59N 37°55' E 023°05'0 0.0
2017-Apr-13 15:29N 37°55' E 023°05'0 0.0
2017-Apr-13 14:59N 37°55' E 023°05'0 0.0
2017-Apr-13 14:29N 37°55' E 023°05'0 0.0
2017-Apr-13 13:29N 37°55' E 023°05'0 0.0
2017-Apr-13 12:59N 37°55' E 023°05'0 0.0
2017-Apr-13 12:29N 37°55' E 023°05'0 0.2
2017-Apr-13 11:59N 37°55' E 023°05'1 2.6
2017-Apr-13 11:28N 37°54' E 023°04'0 0.1
2017-Apr-13 10:58N 37°54' E 023°04'0 0.1
2017-Apr-13 10:25N 37°54' E 023°04'0 0.0
2017-Apr-13 09:58N 37°54' E 023°04'0 0.0
2017-Apr-13 09:28N 37°54' E 023°04'0 0.0
2017-Apr-13 08:58N 37°54' E 023°04'0 0.0
2017-Apr-13 08:28N 37°54' E 023°04'0 0.0
2017-Apr-13 07:58N 37°54' E 023°04'0 0.0
2017-Apr-13 07:25N 37°54' E 023°04'0 0.1
2017-Apr-13 06:58N 37°54' E 023°04'0 0.0
2017-Apr-13 06:28N 37°54' E 023°04'0 0.0
2017-Apr-13 05:58N 37°54' E 023°04'0 0.0
2017-Apr-13 05:28N 37°54' E 023°04'0 0.0
2017-Apr-13 04:58N 37°54' E 023°04'  

Dump ship's entire track history